sensor_id;sensor_type;location;lat;lon;timestamp;temperature;humidity
22629;DHT22;11481;53.694;9.910;2024-01-30T00:02:02;7.00;99.90
22629;DHT22;11481;53.694;9.910;2024-01-30T00:04:29;7.00;99.90
22629;DHT22;11481;53.694;9.910;2024-01-30T00:06:56;6.90;99.90
22629;DHT22;11481;53.694;9.910;2024-01-30T00:09:23;6.90;99.90
22629;DHT22;11481;53.694;9.910;2024-01-30T00:11:50;6.90;99.90
22629;DHT22;11481;53.694;9.910;2024-01-30T00:14:17;6.90;99.90
22629;DHT22;11481;53.694;9.910;2024-01-30T00:16:44;6.90;99.90
22629;DHT22;11481;53.694;9.910;2024-01-30T00:19:12;6.80;99.90
22629;DHT22;11481;53.694;9.910;2024-01-30T00:21:38;6.70;99.90
22629;DHT22;11481;53.694;9.910;2024-01-30T00:24:05;6.80;99.90
22629;DHT22;11481;53.694;9.910;2024-01-30T00:26:32;6.80;99.90
22629;DHT22;11481;53.694;9.910;2024-01-30T00:31:26;6.70;99.90
22629;DHT22;11481;53.694;9.910;2024-01-30T00:33:53;6.80;99.90
22629;DHT22;11481;53.694;9.910;2024-01-30T00:36:20;6.80;99.90
22629;DHT22;11481;53.694;9.910;2024-01-30T00:38:47;6.70;99.90
22629;DHT22;11481;53.694;9.910;2024-01-30T00:41:14;6.80;99.90
22629;DHT22;11481;53.694;9.910;2024-01-30T00:43:41;6.70;99.90
22629;DHT22;11481;53.694;9.910;2024-01-30T00:46:07;6.70;99.90
22629;DHT22;11481;53.694;9.910;2024-01-30T00:48:34;6.70;99.90
22629;DHT22;11481;53.694;9.910;2024-01-30T00:51:01;6.70;99.90
22629;DHT22;11481;53.694;9.910;2024-01-30T00:53:28;6.70;99.90
22629;DHT22;11481;53.694;9.910;2024-01-30T00:55:54;6.70;99.90
22629;DHT22;11481;53.694;9.910;2024-01-30T00:58:21;6.70;99.90
22629;DHT22;11481;53.694;9.910;2024-01-30T01:00:48;6.70;99.90
22629;DHT22;11481;53.694;9.910;2024-01-30T01:03:15;6.70;99.90
22629;DHT22;11481;53.694;9.910;2024-01-30T01:05:42;6.70;99.90
22629;DHT22;11481;53.694;9.910;2024-01-30T01:08:08;6.60;99.90
22629;DHT22;11481;53.694;9.910;2024-01-30T01:10:35;6.70;99.90
22629;DHT22;11481;53.694;9.910;2024-01-30T01:13:02;6.70;99.90
22629;DHT22;11481;53.694;9.910;2024-01-30T01:15:29;6.70;99.90
22629;DHT22;11481;53.694;9.910;2024-01-30T01:17:56;6.70;99.90
22629;DHT22;11481;53.694;9.910;2024-01-30T01:20:23;6.70;99.90
22629;DHT22;11481;53.694;9.910;2024-01-30T01:22:50;6.60;99.90
22629;DHT22;11481;53.694;9.910;2024-01-30T01:25:16;6.70;99.90
22629;DHT22;11481;53.694;9.910;2024-01-30T01:27:43;6.60;99.90
22629;DHT22;11481;53.694;9.910;2024-01-30T01:30:17;6.70;99.90
22629;DHT22;11481;53.694;9.910;2024-01-30T01:32:48;6.70;99.90
22629;DHT22;11481;53.694;9.910;2024-01-30T01:35:22;6.70;99.90
22629;DHT22;11481;53.694;9.910;2024-01-30T01:37:51;6.60;99.90
22629;DHT22;11481;53.694;9.910;2024-01-30T01:40:22;6.60;99.90
22629;DHT22;11481;53.694;9.910;2024-01-30T01:42:50;6.60;99.90
22629;DHT22;11481;53.694;9.910;2024-01-30T01:45:19;6.60;99.90
22629;DHT22;11481;53.694;9.910;2024-01-30T01:47:48;6.50;99.90
22629;DHT22;11481;53.694;9.910;2024-01-30T01:50:17;6.60;99.90
22629;DHT22;11481;53.694;9.910;2024-01-30T01:52:48;6.60;99.90
22629;DHT22;11481;53.694;9.910;2024-01-30T01:55:16;6.50;99.90
22629;DHT22;11481;53.694;9.910;2024-01-30T01:57:45;6.50;99.90
22629;DHT22;11481;53.694;9.910;2024-01-30T02:00:12;6.50;99.90
22629;DHT22;11481;53.694;9.910;2024-01-30T02:02:39;6.60;99.90
22629;DHT22;11481;53.694;9.910;2024-01-30T02:05:07;6.50;99.90
22629;DHT22;11481;53.694;9.910;2024-01-30T02:07:34;7.50;99.90
22629;DHT22;11481;53.694;9.910;2024-01-30T02:10:01;6.50;99.90
22629;DHT22;11481;53.694;9.910;2024-01-30T02:12:30;6.50;99.90
22629;DHT22;11481;53.694;9.910;2024-01-30T02:14:57;6.50;99.90
22629;DHT22;11481;53.694;9.910;2024-01-30T02:17:23;6.50;99.90
22629;DHT22;11481;53.694;9.910;2024-01-30T02:19:50;6.50;99.90
22629;DHT22;11481;53.694;9.910;2024-01-30T02:22:17;6.50;99.90
22629;DHT22;11481;53.694;9.910;2024-01-30T02:24:44;6.50;99.90
22629;DHT22;11481;53.694;9.910;2024-01-30T02:27:11;6.50;99.90
22629;DHT22;11481;53.694;9.910;2024-01-30T02:29:38;7.60;99.90
22629;DHT22;11481;53.694;9.910;2024-01-30T02:32:05;6.40;99.90
22629;DHT22;11481;53.694;9.910;2024-01-30T02:34:32;6.40;99.90
22629;DHT22;11481;53.694;9.910;2024-01-30T02:36:59;6.40;99.90
22629;DHT22;11481;53.694;9.910;2024-01-30T02:39:26;6.40;99.90
22629;DHT22;11481;53.694;9.910;2024-01-30T02:41:53;6.40;99.90
22629;DHT22;11481;53.694;9.910;2024-01-30T02:44:19;6.30;99.90
22629;DHT22;11481;53.694;9.910;2024-01-30T02:46:47;6.40;99.90
22629;DHT22;11481;53.694;9.910;2024-01-30T02:49:13;6.40;99.90
22629;DHT22;11481;53.694;9.910;2024-01-30T02:51:40;6.40;99.90
22629;DHT22;11481;53.694;9.910;2024-01-30T02:54:07;6.30;99.90
22629;DHT22;11481;53.694;9.910;2024-01-30T02:56:33;6.40;99.90
22629;DHT22;11481;53.694;9.910;2024-01-30T02:59:00;6.40;99.90
22629;DHT22;11481;53.694;9.910;2024-01-30T03:01:27;6.40;99.90
22629;DHT22;11481;53.694;9.910;2024-01-30T03:03:53;6.40;99.90
22629;DHT22;11481;53.694;9.910;2024-01-30T03:06:20;6.40;99.90
22629;DHT22;11481;53.694;9.910;2024-01-30T03:08:48;6.40;99.90
22629;DHT22;11481;53.694;9.910;2024-01-30T03:11:15;6.30;99.90
22629;DHT22;11481;53.694;9.910;2024-01-30T03:13:41;6.30;99.90
22629;DHT22;11481;53.694;9.910;2024-01-30T03:16:08;6.20;99.90
22629;DHT22;11481;53.694;9.910;2024-01-30T03:18:35;6.20;99.90
22629;DHT22;11481;53.694;9.910;2024-01-30T03:21:02;6.20;99.90
22629;DHT22;11481;53.694;9.910;2024-01-30T03:23:28;6.20;99.90
22629;DHT22;11481;53.694;9.910;2024-01-30T03:25:56;6.20;99.90
22629;DHT22;11481;53.694;9.910;2024-01-30T03:28:22;6.10;99.90
22629;DHT22;11481;53.694;9.910;2024-01-30T03:30:49;6.00;99.90
22629;DHT22;11481;53.694;9.910;2024-01-30T03:33:16;6.00;99.90
22629;DHT22;11481;53.694;9.910;2024-01-30T03:35:42;6.00;99.90
22629;DHT22;11481;53.694;9.910;2024-01-30T03:38:09;6.00;99.90
22629;DHT22;11481;53.694;9.910;2024-01-30T03:40:36;5.90;99.90
22629;DHT22;11481;53.694;9.910;2024-01-30T03:43:02;5.90;99.90
22629;DHT22;11481;53.694;9.910;2024-01-30T03:45:29;5.90;99.90
22629;DHT22;11481;53.694;9.910;2024-01-30T03:47:56;5.80;99.90
22629;DHT22;11481;53.694;9.910;2024-01-30T03:50:23;5.80;99.90
22629;DHT22;11481;53.694;9.910;2024-01-30T03:52:50;5.80;99.90
22629;DHT22;11481;53.694;9.910;2024-01-30T03:55:16;5.80;99.90
22629;DHT22;11481;53.694;9.910;2024-01-30T03:57:43;5.80;99.90
22629;DHT22;11481;53.694;9.910;2024-01-30T04:00:10;5.80;99.90
22629;DHT22;11481;53.694;9.910;2024-01-30T04:02:37;5.80;99.90
22629;DHT22;11481;53.694;9.910;2024-01-30T04:05:04;5.80;99.90
22629;DHT22;11481;53.694;9.910;2024-01-30T04:07:31;5.80;99.90
22629;DHT22;11481;53.694;9.910;2024-01-30T04:09:58;5.70;99.90
22629;DHT22;11481;53.694;9.910;2024-01-30T04:12:25;5.70;99.90
22629;DHT22;11481;53.694;9.910;2024-01-30T04:14:53;5.70;99.90
22629;DHT22;11481;53.694;9.910;2024-01-30T04:17:20;5.70;99.90
22629;DHT22;11481;53.694;9.910;2024-01-30T04:19:47;5.70;99.90
22629;DHT22;11481;53.694;9.910;2024-01-30T04:22:14;5.70;99.90
22629;DHT22;11481;53.694;9.910;2024-01-30T04:24:40;5.70;99.90
22629;DHT22;11481;53.694;9.910;2024-01-30T04:27:07;5.70;99.90
22629;DHT22;11481;53.694;9.910;2024-01-30T04:29:34;5.70;99.90
22629;DHT22;11481;53.694;9.910;2024-01-30T04:32:00;5.60;99.90
22629;DHT22;11481;53.694;9.910;2024-01-30T04:34:27;5.70;99.90
22629;DHT22;11481;53.694;9.910;2024-01-30T04:36:54;5.60;99.90
22629;DHT22;11481;53.694;9.910;2024-01-30T04:39:21;5.60;99.90
22629;DHT22;11481;53.694;9.910;2024-01-30T04:41:47;5.60;99.90
22629;DHT22;11481;53.694;9.910;2024-01-30T04:44:14;5.60;99.90
22629;DHT22;11481;53.694;9.910;2024-01-30T04:46:41;5.60;99.90
22629;DHT22;11481;53.694;9.910;2024-01-30T04:49:08;5.60;99.90
22629;DHT22;11481;53.694;9.910;2024-01-30T04:51:35;5.60;99.90
22629;DHT22;11481;53.694;9.910;2024-01-30T04:54:02;5.60;99.90
22629;DHT22;11481;53.694;9.910;2024-01-30T04:56:28;5.60;99.90
22629;DHT22;11481;53.694;9.910;2024-01-30T04:58:55;5.50;99.90
22629;DHT22;11481;53.694;9.910;2024-01-30T05:01:22;5.50;99.90
22629;DHT22;11481;53.694;9.910;2024-01-30T05:03:49;5.50;99.90
22629;DHT22;11481;53.694;9.910;2024-01-30T05:06:27;5.50;99.90
22629;DHT22;11481;53.694;9.910;2024-01-30T05:08:54;5.60;99.90
22629;DHT22;11481;53.694;9.910;2024-01-30T05:11:21;5.60;99.90
22629;DHT22;11481;53.694;9.910;2024-01-30T05:13:47;5.60;99.90
22629;DHT22;11481;53.694;9.910;2024-01-30T05:16:14;5.50;99.90
22629;DHT22;11481;53.694;9.910;2024-01-30T05:18:41;5.50;99.90
22629;DHT22;11481;53.694;9.910;2024-01-30T05:21:08;5.50;99.90
22629;DHT22;11481;53.694;9.910;2024-01-30T05:23:34;5.60;99.90
22629;DHT22;11481;53.694;9.910;2024-01-30T05:26:01;5.60;99.90
22629;DHT22;11481;53.694;9.910;2024-01-30T05:28:29;5.60;99.90
22629;DHT22;11481;53.694;9.910;2024-01-30T05:30:56;5.60;99.90
22629;DHT22;11481;53.694;9.910;2024-01-30T05:33:23;5.70;99.90
22629;DHT22;11481;53.694;9.910;2024-01-30T05:35:50;5.60;99.90
22629;DHT22;11481;53.694;9.910;2024-01-30T05:38:20;5.60;99.90
22629;DHT22;11481;53.694;9.910;2024-01-30T05:40:47;5.60;99.90
22629;DHT22;11481;53.694;9.910;2024-01-30T05:43:14;5.70;99.90
22629;DHT22;11481;53.694;9.910;2024-01-30T05:45:41;5.70;99.90
22629;DHT22;11481;53.694;9.910;2024-01-30T05:48:08;5.70;99.90
22629;DHT22;11481;53.694;9.910;2024-01-30T05:50:34;5.60;99.90
22629;DHT22;11481;53.694;9.910;2024-01-30T05:53:01;5.60;99.90
22629;DHT22;11481;53.694;9.910;2024-01-30T05:55:28;5.60;99.90
22629;DHT22;11481;53.694;9.910;2024-01-30T05:57:54;6.10;99.90
22629;DHT22;11481;53.694;9.910;2024-01-30T06:00:21;5.60;99.90
22629;DHT22;11481;53.694;9.910;2024-01-30T06:02:48;5.70;99.90
22629;DHT22;11481;53.694;9.910;2024-01-30T06:05:15;5.60;99.90
22629;DHT22;11481;53.694;9.910;2024-01-30T06:07:42;5.70;99.90
22629;DHT22;11481;53.694;9.910;2024-01-30T06:10:09;5.70;99.90
22629;DHT22;11481;53.694;9.910;2024-01-30T06:12:35;5.70;99.90
22629;DHT22;11481;53.694;9.910;2024-01-30T06:15:02;5.70;99.90
22629;DHT22;11481;53.694;9.910;2024-01-30T06:17:29;5.70;99.90
22629;DHT22;11481;53.694;9.910;2024-01-30T06:19:56;5.70;99.90
22629;DHT22;11481;53.694;9.910;2024-01-30T06:22:23;5.70;99.90
22629;DHT22;11481;53.694;9.910;2024-01-30T06:24:50;5.70;99.90
22629;DHT22;11481;53.694;9.910;2024-01-30T06:27:16;5.80;99.90
22629;DHT22;11481;53.694;9.910;2024-01-30T06:29:44;5.70;99.90
22629;DHT22;11481;53.694;9.910;2024-01-30T06:32:11;5.80;99.90
22629;DHT22;11481;53.694;9.910;2024-01-30T06:34:37;5.80;99.90
22629;DHT22;11481;53.694;9.910;2024-01-30T06:37:06;5.80;99.90
22629;DHT22;11481;53.694;9.910;2024-01-30T06:39:33;6.50;99.90
22629;DHT22;11481;53.694;9.910;2024-01-30T06:41:59;6.70;99.90
22629;DHT22;11481;53.694;9.910;2024-01-30T06:44:26;6.60;99.90
22629;DHT22;11481;53.694;9.910;2024-01-30T06:46:56;5.90;99.90
22629;DHT22;11481;53.694;9.910;2024-01-30T06:49:22;6.00;99.90
22629;DHT22;11481;53.694;9.910;2024-01-30T06:51:49;5.90;99.90
22629;DHT22;11481;53.694;9.910;2024-01-30T06:54:16;5.90;99.90
22629;DHT22;11481;53.694;9.910;2024-01-30T06:56:43;5.90;99.90
22629;DHT22;11481;53.694;9.910;2024-01-30T06:59:10;5.90;99.90
22629;DHT22;11481;53.694;9.910;2024-01-30T07:01:36;5.90;99.90
22629;DHT22;11481;53.694;9.910;2024-01-30T07:04:03;5.90;99.90
22629;DHT22;11481;53.694;9.910;2024-01-30T07:06:30;7.00;99.90
22629;DHT22;11481;53.694;9.910;2024-01-30T07:08:57;6.00;99.90
22629;DHT22;11481;53.694;9.910;2024-01-30T07:11:24;6.00;99.90
22629;DHT22;11481;53.694;9.910;2024-01-30T07:13:51;5.90;99.90
22629;DHT22;11481;53.694;9.910;2024-01-30T07:16:18;7.10;99.90
22629;DHT22;11481;53.694;9.910;2024-01-30T07:18:45;5.90;99.90
22629;DHT22;11481;53.694;9.910;2024-01-30T07:21:12;5.90;99.90
22629;DHT22;11481;53.694;9.910;2024-01-30T07:23:38;5.90;99.90
22629;DHT22;11481;53.694;9.910;2024-01-30T07:26:05;5.80;99.90
22629;DHT22;11481;53.694;9.910;2024-01-30T07:28:33;5.90;99.90
22629;DHT22;11481;53.694;9.910;2024-01-30T07:31:00;5.90;99.90
22629;DHT22;11481;53.694;9.910;2024-01-30T07:33:27;5.90;99.90
22629;DHT22;11481;53.694;9.910;2024-01-30T07:35:54;6.00;99.90
22629;DHT22;11481;53.694;9.910;2024-01-30T07:38:21;6.00;99.90
22629;DHT22;11481;53.694;9.910;2024-01-30T07:40:48;6.00;99.90
22629;DHT22;11481;53.694;9.910;2024-01-30T07:43:14;6.00;99.90
22629;DHT22;11481;53.694;9.910;2024-01-30T07:45:41;6.10;99.90
22629;DHT22;11481;53.694;9.910;2024-01-30T07:48:08;6.20;99.90
22629;DHT22;11481;53.694;9.910;2024-01-30T07:50:35;6.10;99.90
22629;DHT22;11481;53.694;9.910;2024-01-30T07:53:02;6.10;99.90
22629;DHT22;11481;53.694;9.910;2024-01-30T07:55:41;6.20;99.90
22629;DHT22;11481;53.694;9.910;2024-01-30T07:58:10;6.20;99.90
22629;DHT22;11481;53.694;9.910;2024-01-30T08:00:37;6.20;99.90
22629;DHT22;11481;53.694;9.910;2024-01-30T08:03:04;6.20;99.90
22629;DHT22;11481;53.694;9.910;2024-01-30T08:05:31;6.20;99.90
22629;DHT22;11481;53.694;9.910;2024-01-30T08:07:57;6.20;99.90
22629;DHT22;11481;53.694;9.910;2024-01-30T08:10:24;6.20;99.90
22629;DHT22;11481;53.694;9.910;2024-01-30T08:12:51;6.20;99.90
22629;DHT22;11481;53.694;9.910;2024-01-30T08:15:18;6.20;99.90
22629;DHT22;11481;53.694;9.910;2024-01-30T08:17:44;6.20;99.90
22629;DHT22;11481;53.694;9.910;2024-01-30T08:20:12;6.30;99.90
22629;DHT22;11481;53.694;9.910;2024-01-30T08:22:39;6.30;99.90
22629;DHT22;11481;53.694;9.910;2024-01-30T08:25:07;6.40;99.90
22629;DHT22;11481;53.694;9.910;2024-01-30T08:27:34;6.40;99.90
22629;DHT22;11481;53.694;9.910;2024-01-30T08:30:02;6.40;99.90
22629;DHT22;11481;53.694;9.910;2024-01-30T08:32:29;6.50;99.90
22629;DHT22;11481;53.694;9.910;2024-01-30T08:34:56;6.50;99.90
22629;DHT22;11481;53.694;9.910;2024-01-30T08:37:24;6.50;99.90
22629;DHT22;11481;53.694;9.910;2024-01-30T08:39:51;6.50;99.90
22629;DHT22;11481;53.694;9.910;2024-01-30T08:42:18;6.50;99.90
22629;DHT22;11481;53.694;9.910;2024-01-30T08:44:49;6.50;99.90
22629;DHT22;11481;53.694;9.910;2024-01-30T08:47:18;6.60;99.90
22629;DHT22;11481;53.694;9.910;2024-01-30T08:49:45;6.60;99.90
22629;DHT22;11481;53.694;9.910;2024-01-30T08:52:12;6.70;99.90
22629;DHT22;11481;53.694;9.910;2024-01-30T08:54:39;6.70;99.90
22629;DHT22;11481;53.694;9.910;2024-01-30T08:57:05;6.70;99.90
22629;DHT22;11481;53.694;9.910;2024-01-30T08:59:32;6.70;99.90
22629;DHT22;11481;53.694;9.910;2024-01-30T09:02:00;6.80;99.90
22629;DHT22;11481;53.694;9.910;2024-01-30T09:04:38;6.80;99.90
22629;DHT22;11481;53.694;9.910;2024-01-30T09:07:05;6.90;99.90
22629;DHT22;11481;53.694;9.910;2024-01-30T09:09:37;7.00;99.90
22629;DHT22;11481;53.694;9.910;2024-01-30T09:12:04;7.00;99.90
22629;DHT22;11481;53.694;9.910;2024-01-30T09:14:33;7.10;99.90
22629;DHT22;11481;53.694;9.910;2024-01-30T09:17:00;7.10;99.90
22629;DHT22;11481;53.694;9.910;2024-01-30T09:19:26;7.20;99.90
22629;DHT22;11481;53.694;9.910;2024-01-30T09:21:53;7.20;99.90
22629;DHT22;11481;53.694;9.910;2024-01-30T09:24:20;7.20;99.90
22629;DHT22;11481;53.694;9.910;2024-01-30T09:26:47;7.20;99.90
22629;DHT22;11481;53.694;9.910;2024-01-30T09:29:14;7.20;99.90
22629;DHT22;11481;53.694;9.910;2024-01-30T09:31:44;7.30;99.90
22629;DHT22;11481;53.694;9.910;2024-01-30T09:34:10;7.30;99.90
22629;DHT22;11481;53.694;9.910;2024-01-30T09:36:37;7.40;99.90
22629;DHT22;11481;53.694;9.910;2024-01-30T09:39:04;7.40;99.90
22629;DHT22;11481;53.694;9.910;2024-01-30T09:41:33;7.40;99.90
22629;DHT22;11481;53.694;9.910;2024-01-30T09:44:05;7.50;99.90
22629;DHT22;11481;53.694;9.910;2024-01-30T09:46:33;7.60;99.90
22629;DHT22;11481;53.694;9.910;2024-01-30T09:49:02;7.70;99.90
22629;DHT22;11481;53.694;9.910;2024-01-30T09:51:30;7.80;99.90
22629;DHT22;11481;53.694;9.910;2024-01-30T09:53:57;7.80;99.90
22629;DHT22;11481;53.694;9.910;2024-01-30T09:56:23;7.80;99.90
22629;DHT22;11481;53.694;9.910;2024-01-30T09:58:50;7.90;99.90
22629;DHT22;11481;53.694;9.910;2024-01-30T10:01:17;7.90;99.90
22629;DHT22;11481;53.694;9.910;2024-01-30T10:03:45;8.00;99.90
22629;DHT22;11481;53.694;9.910;2024-01-30T10:06:13;8.10;99.90
22629;DHT22;11481;53.694;9.910;2024-01-30T10:08:42;8.10;99.90
22629;DHT22;11481;53.694;9.910;2024-01-30T10:11:09;8.10;99.90
22629;DHT22;11481;53.694;9.910;2024-01-30T10:13:36;8.10;99.90
22629;DHT22;11481;53.694;9.910;2024-01-30T10:16:03;8.20;99.90
22629;DHT22;11481;53.694;9.910;2024-01-30T10:18:32;8.20;99.90
22629;DHT22;11481;53.694;9.910;2024-01-30T10:20:59;8.30;99.90
22629;DHT22;11481;53.694;9.910;2024-01-30T10:23:26;8.40;99.90
22629;DHT22;11481;53.694;9.910;2024-01-30T10:25:57;8.40;99.90
22629;DHT22;11481;53.694;9.910;2024-01-30T10:28:27;8.50;99.90
22629;DHT22;11481;53.694;9.910;2024-01-30T10:31:02;8.60;99.90
22629;DHT22;11481;53.694;9.910;2024-01-30T10:33:33;8.60;99.90
22629;DHT22;11481;53.694;9.910;2024-01-30T10:36:02;8.60;99.90
22629;DHT22;11481;53.694;9.910;2024-01-30T10:38:29;8.70;99.90
22629;DHT22;11481;53.694;9.910;2024-01-30T10:40:58;8.80;99.90
22629;DHT22;11481;53.694;9.910;2024-01-30T10:43:32;9.50;99.90
22629;DHT22;11481;53.694;9.910;2024-01-30T10:46:08;8.90;99.90
22629;DHT22;11481;53.694;9.910;2024-01-30T10:48:42;9.00;99.90
22629;DHT22;11481;53.694;9.910;2024-01-30T10:51:12;9.00;99.90
22629;DHT22;11481;53.694;9.910;2024-01-30T10:53:40;9.10;99.90
22629;DHT22;11481;53.694;9.910;2024-01-30T10:56:08;9.20;99.90
22629;DHT22;11481;53.694;9.910;2024-01-30T10:58:36;9.10;99.90
22629;DHT22;11481;53.694;9.910;2024-01-30T11:01:03;9.20;99.90
22629;DHT22;11481;53.694;9.910;2024-01-30T11:03:32;9.20;99.90
22629;DHT22;11481;53.694;9.910;2024-01-30T11:06:00;9.20;99.90
22629;DHT22;11481;53.694;9.910;2024-01-30T11:08:28;9.30;99.90
22629;DHT22;11481;53.694;9.910;2024-01-30T11:10:56;9.40;99.90
22629;DHT22;11481;53.694;9.910;2024-01-30T11:13:30;9.40;99.90
22629;DHT22;11481;53.694;9.910;2024-01-30T11:16:01;9.50;99.90
22629;DHT22;11481;53.694;9.910;2024-01-30T11:18:33;9.40;99.90
22629;DHT22;11481;53.694;9.910;2024-01-30T11:20:59;9.50;99.90
22629;DHT22;11481;53.694;9.910;2024-01-30T11:23:28;9.50;99.90
22629;DHT22;11481;53.694;9.910;2024-01-30T11:25:56;9.50;99.90
22629;DHT22;11481;53.694;9.910;2024-01-30T11:28:24;9.60;99.90
22629;DHT22;11481;53.694;9.910;2024-01-30T11:31:07;9.60;99.90
22629;DHT22;11481;53.694;9.910;2024-01-30T11:33:34;9.70;99.90
22629;DHT22;11481;53.694;9.910;2024-01-30T11:36:02;9.60;99.90
22629;DHT22;11481;53.694;9.910;2024-01-30T11:38:29;9.80;99.90
22629;DHT22;11481;53.694;9.910;2024-01-30T11:40:56;9.80;99.90
22629;DHT22;11481;53.694;9.910;2024-01-30T11:43:24;10.10;99.90
22629;DHT22;11481;53.694;9.910;2024-01-30T11:45:51;9.80;99.90
22629;DHT22;11481;53.694;9.910;2024-01-30T11:48:18;9.70;99.90
22629;DHT22;11481;53.694;9.910;2024-01-30T11:50:46;9.70;99.90
22629;DHT22;11481;53.694;9.910;2024-01-30T11:53:13;9.80;99.90
22629;DHT22;11481;53.694;9.910;2024-01-30T11:55:40;9.80;99.90
22629;DHT22;11481;53.694;9.910;2024-01-30T11:58:07;9.80;99.90
22629;DHT22;11481;53.694;9.910;2024-01-30T12:00:34;10.00;99.90
22629;DHT22;11481;53.694;9.910;2024-01-30T12:03:02;9.90;99.90
22629;DHT22;11481;53.694;9.910;2024-01-30T12:05:30;10.00;99.90
22629;DHT22;11481;53.694;9.910;2024-01-30T12:07:57;9.90;99.90
22629;DHT22;11481;53.694;9.910;2024-01-30T12:10:27;9.90;99.90
22629;DHT22;11481;53.694;9.910;2024-01-30T12:12:54;9.90;99.90
22629;DHT22;11481;53.694;9.910;2024-01-30T12:15:22;9.90;99.90
22629;DHT22;11481;53.694;9.910;2024-01-30T12:17:49;9.90;99.90
22629;DHT22;11481;53.694;9.910;2024-01-30T12:20:18;9.90;99.90
22629;DHT22;11481;53.694;9.910;2024-01-30T12:22:49;9.90;99.90
22629;DHT22;11481;53.694;9.910;2024-01-30T12:25:18;10.00;99.90
22629;DHT22;11481;53.694;9.910;2024-01-30T12:27:50;10.10;99.90
22629;DHT22;11481;53.694;9.910;2024-01-30T12:30:19;10.00;99.90
22629;DHT22;11481;53.694;9.910;2024-01-30T12:32:49;10.00;99.90
22629;DHT22;11481;53.694;9.910;2024-01-30T12:35:18;10.00;99.90
22629;DHT22;11481;53.694;9.910;2024-01-30T12:37:47;10.10;99.90
22629;DHT22;11481;53.694;9.910;2024-01-30T12:40:15;10.10;99.90
22629;DHT22;11481;53.694;9.910;2024-01-30T12:42:43;10.10;99.90
22629;DHT22;11481;53.694;9.910;2024-01-30T12:45:13;10.10;99.90
22629;DHT22;11481;53.694;9.910;2024-01-30T12:47:42;10.10;99.90
22629;DHT22;11481;53.694;9.910;2024-01-30T12:50:09;10.10;99.90
22629;DHT22;11481;53.694;9.910;2024-01-30T12:52:36;10.00;99.90
22629;DHT22;11481;53.694;9.910;2024-01-30T12:55:03;10.10;99.90
22629;DHT22;11481;53.694;9.910;2024-01-30T12:57:30;10.10;99.90
22629;DHT22;11481;53.694;9.910;2024-01-30T12:59:57;10.00;99.90
22629;DHT22;11481;53.694;9.910;2024-01-30T13:02:25;10.10;99.90
22629;DHT22;11481;53.694;9.910;2024-01-30T13:04:52;10.00;99.90
22629;DHT22;11481;53.694;9.910;2024-01-30T13:07:19;10.00;99.90
22629;DHT22;11481;53.694;9.910;2024-01-30T13:09:47;10.50;99.90
22629;DHT22;11481;53.694;9.910;2024-01-30T13:12:14;10.10;99.90
22629;DHT22;11481;53.694;9.910;2024-01-30T13:14:41;10.00;99.90
22629;DHT22;11481;53.694;9.910;2024-01-30T13:17:09;10.00;99.90
22629;DHT22;11481;53.694;9.910;2024-01-30T13:19:35;10.10;99.90
22629;DHT22;11481;53.694;9.910;2024-01-30T13:22:02;10.10;99.90
22629;DHT22;11481;53.694;9.910;2024-01-30T13:24:30;10.10;99.90
22629;DHT22;11481;53.694;9.910;2024-01-30T13:26:56;10.20;99.90
22629;DHT22;11481;53.694;9.910;2024-01-30T13:29:24;10.10;99.90
22629;DHT22;11481;53.694;9.910;2024-01-30T13:31:51;10.20;99.90
22629;DHT22;11481;53.694;9.910;2024-01-30T13:34:18;10.20;99.90
22629;DHT22;11481;53.694;9.910;2024-01-30T13:36:45;10.20;99.90
22629;DHT22;11481;53.694;9.910;2024-01-30T13:39:11;10.20;99.90
22629;DHT22;11481;53.694;9.910;2024-01-30T13:41:39;10.20;99.90
22629;DHT22;11481;53.694;9.910;2024-01-30T13:44:05;10.20;99.90
22629;DHT22;11481;53.694;9.910;2024-01-30T13:46:32;10.20;99.90
22629;DHT22;11481;53.694;9.910;2024-01-30T13:48:59;10.30;99.90
22629;DHT22;11481;53.694;9.910;2024-01-30T13:51:27;10.30;99.90
22629;DHT22;11481;53.694;9.910;2024-01-30T13:53:54;10.20;99.90
22629;DHT22;11481;53.694;9.910;2024-01-30T13:56:20;10.30;99.90
22629;DHT22;11481;53.694;9.910;2024-01-30T13:58:50;10.30;99.90
22629;DHT22;11481;53.694;9.910;2024-01-30T14:01:17;10.40;99.90
22629;DHT22;11481;53.694;9.910;2024-01-30T14:03:45;10.40;99.90
22629;DHT22;11481;53.694;9.910;2024-01-30T14:06:12;10.30;99.90
22629;DHT22;11481;53.694;9.910;2024-01-30T14:08:39;10.40;99.90
22629;DHT22;11481;53.694;9.910;2024-01-30T14:11:05;10.40;99.90
22629;DHT22;11481;53.694;9.910;2024-01-30T14:13:33;10.40;99.90
22629;DHT22;11481;53.694;9.910;2024-01-30T14:16:00;10.40;99.90
22629;DHT22;11481;53.694;9.910;2024-01-30T14:18:27;10.40;99.90
22629;DHT22;11481;53.694;9.910;2024-01-30T14:20:53;10.40;99.90
22629;DHT22;11481;53.694;9.910;2024-01-30T14:23:21;10.40;99.90
22629;DHT22;11481;53.694;9.910;2024-01-30T14:25:48;10.40;99.90
22629;DHT22;11481;53.694;9.910;2024-01-30T14:28:15;10.40;99.90
22629;DHT22;11481;53.694;9.910;2024-01-30T14:30:42;10.50;99.90
22629;DHT22;11481;53.694;9.910;2024-01-30T14:33:09;10.40;99.90
22629;DHT22;11481;53.694;9.910;2024-01-30T14:35:36;10.50;99.90
22629;DHT22;11481;53.694;9.910;2024-01-30T14:38:03;10.50;99.90
22629;DHT22;11481;53.694;9.910;2024-01-30T14:40:31;10.50;99.90
22629;DHT22;11481;53.694;9.910;2024-01-30T14:42:58;10.50;99.90
22629;DHT22;11481;53.694;9.910;2024-01-30T14:45:25;10.50;99.90
22629;DHT22;11481;53.694;9.910;2024-01-30T14:47:52;10.40;99.90
22629;DHT22;11481;53.694;9.910;2024-01-30T14:50:19;10.50;99.90
22629;DHT22;11481;53.694;9.910;2024-01-30T14:52:46;10.50;99.90
22629;DHT22;11481;53.694;9.910;2024-01-30T14:55:13;10.40;99.90
22629;DHT22;11481;53.694;9.910;2024-01-30T14:57:40;10.50;99.90
22629;DHT22;11481;53.694;9.910;2024-01-30T15:00:09;10.40;99.90
22629;DHT22;11481;53.694;9.910;2024-01-30T15:02:36;10.40;99.90
22629;DHT22;11481;53.694;9.910;2024-01-30T15:05:02;10.50;99.90
22629;DHT22;11481;53.694;9.910;2024-01-30T15:07:30;10.50;99.90
22629;DHT22;11481;53.694;9.910;2024-01-30T15:10:06;10.40;99.90
22629;DHT22;11481;53.694;9.910;2024-01-30T15:12:34;10.40;99.90
22629;DHT22;11481;53.694;9.910;2024-01-30T15:15:01;10.30;99.90
22629;DHT22;11481;53.694;9.910;2024-01-30T15:17:27;10.30;99.90
22629;DHT22;11481;53.694;9.910;2024-01-30T15:19:54;10.40;99.90
22629;DHT22;11481;53.694;9.910;2024-01-30T15:22:21;10.40;99.90
22629;DHT22;11481;53.694;9.910;2024-01-30T15:24:48;10.40;99.90
22629;DHT22;11481;53.694;9.910;2024-01-30T15:27:15;11.00;99.90
22629;DHT22;11481;53.694;9.910;2024-01-30T15:29:42;10.40;99.90
22629;DHT22;11481;53.694;9.910;2024-01-30T15:32:08;10.70;99.90
22629;DHT22;11481;53.694;9.910;2024-01-30T15:34:35;10.40;99.90
22629;DHT22;11481;53.694;9.910;2024-01-30T15:37:02;10.40;99.90
22629;DHT22;11481;53.694;9.910;2024-01-30T15:39:30;10.40;99.90
22629;DHT22;11481;53.694;9.910;2024-01-30T15:41:56;10.40;99.90
22629;DHT22;11481;53.694;9.910;2024-01-30T15:44:25;10.50;99.90
22629;DHT22;11481;53.694;9.910;2024-01-30T15:46:52;10.40;99.90